Ferguson Hill, Indiana
Current Conditions -  °F | °C
As of 9:53 PM on Saturday 22 Nov 2014 (Local Time) from KHUF Reporting Station
Light Rain Light Rain  
Wind Chill: 54°   Ceiling: 5000
Heat Index: 54°   Visibility: 10mi
Dew Point: 41°   Wind: 10mph
Humidity: 62%   Direction: 190°S
Pressure: 29.99"   Gusts: NA
Location:  39.5107°N, 87.4772°W
Report Text: KHUF 230253Z 19009KT 10SM -RA OVC050 12/05 A2999 RMK AO2 RAB42 SLP156 P0000 60000 T01220050 56005
Loading
Personal Weather Stations






























Interactive Weather Map New forecast layout! Learn more

10-Day Weather Forecast

Advertisements
Track Severe Weather on mobile